Time;durP1;ratioP1;P1;durP2;ratioP2;P2;SDS_P1;SDS_P2;PMS_P1;PMS_P2;Temp;Humidity;BMP_temperature;BMP_pressure;BME280_temperature;BME280_humidity;BME280_pressure;Samples;Min_cycle;Max_cycle;Signal;HPM_P1;HPM_P2
2023/05/14 00:01:58;;;;;;;;;;;;;;;9.93;100.00;97697.19;18571211;32;19952;-55
2023/05/14 00:12:00;;;;;;;;;;;;;;;10.01;100.00;97685.88;18570604;32;19963;-55
2023/05/14 00:22:02;;;;;;;;;;;;;;;10.03;100.00;97685.63;18568691;32;19952;-56
2023/05/14 00:32:05;;;;;;;;;;;;;;;10.05;100.00;97685.38;18569088;31;20003;-55
2023/05/14 00:42:07;;;;;;;;;;;;;;;10.07;100.00;97675.09;18554454;32;19952;-55
2023/05/14 00:52:10;;;;;;;;;;;;;;;10.07;100.00;97673.22;18554268;32;19971;-55
2023/05/14 01:02:12;;;;;;;;;;;;;;;10.10;100.00;97661.87;18567918;32;19967;-56
2023/05/14 01:12:28;;;;;;;;;;;;;;;10.10;100.00;97651.06;18567290;32;19961;-54
2023/05/14 01:22:30;;;;;;;;;;;;;;;10.05;100.00;97645.63;18566412;32;20345;-55
2023/05/14 01:32:33;;;;;;;;;;;;;;;10.10;100.00;97650.22;18565226;32;19956;-55
2023/05/14 01:42:37;;;;;;;;;;;;;;;10.12;100.00;97650.78;18550476;32;19949;-55
2023/05/14 01:52:39;;;;;;;;;;;;;;;10.00;100.00;97651.03;18564531;32;20020;-55
2023/05/14 02:02:42;;;;;;;;;;;;;;;9.73;100.00;97656.62;18549911;32;19987;-54
2023/05/14 02:12:44;;;;;;;;;;;;;;;9.49;100.00;97652.47;18563360;32;19983;-54
2023/05/14 02:22:46;;;;;;;;;;;;;;;9.46;100.00;97636.81;18562412;32;20295;-55
2023/05/14 02:32:48;;;;;;;;;;;;;;;9.53;100.00;97628.47;18562080;32;19953;-54
2023/05/14 02:42:50;;;;;;;;;;;;;;;9.61;100.00;97621.75;18560879;32;19957;-55
2023/05/14 02:52:53;;;;;;;;;;;;;;;9.65;100.00;97615.56;18561654;32;19983;-55
2023/05/14 03:02:55;;;;;;;;;;;;;;;9.60;100.00;97618.22;18560974;32;19957;-55
2023/05/14 03:12:58;;;;;;;;;;;;;;;9.38;100.00;97618.41;18546971;32;19971;-54
2023/05/14 03:23:00;;;;;;;;;;;;;;;9.10;100.00;97615.06;18545796;32;19949;-55
2023/05/14 03:33:03;;;;;;;;;;;;;;;8.94;100.00;97616.84;18546186;32;19957;-55
2023/05/14 03:43:05;;;;;;;;;;;;;;;8.75;100.00;97621.84;18559698;32;19982;-54
2023/05/14 03:53:07;;;;;;;;;;;;;;;8.58;100.00;97621.22;18562179;32;19964;-54
2023/05/14 04:03:09;;;;;;;;;;;;;;;8.60;100.00;97640.63;18571175;32;20329;-55
2023/05/14 04:13:12;;;;;;;;;;;;;;;8.58;100.00;97632.00;18556623;31;19973;-56
2023/05/14 04:23:14;;;;;;;;;;;;;;;8.59;100.00;97639.81;18570096;32;20017;-55
2023/05/14 04:33:16;;;;;;;;;;;;;;;8.72;100.00;97643.94;18554882;32;19975;-55
2023/05/14 04:43:18;;;;;;;;;;;;;;;8.95;100.00;97650.84;18568993;32;20350;-56
2023/05/14 04:53:21;;;;;;;;;;;;;;;9.18;100.00;97642.59;18568664;32;19965;-55
2023/05/14 05:03:23;;;;;;;;;;;;;;;9.33;100.00;97635.41;18566678;31;19961;-55
2023/05/14 05:13:25;;;;;;;;;;;;;;;9.48;100.00;97645.47;18552979;32;19944;-55
2023/05/14 05:23:27;;;;;;;;;;;;;;;9.76;100.00;97659.59;18566238;32;19956;-55
2023/05/14 05:33:30;;;;;;;;;;;;;;;10.04;100.00;97652.13;18565898;32;20287;-56
2023/05/14 05:43:33;;;;;;;;;;;;;;;10.89;100.00;97648.13;18564851;32;20004;-56
2023/05/14 05:53:35;;;;;;;;;;;;;;;11.14;100.00;97636.47;18564792;32;19957;-56
2023/05/14 06:03:38;;;;;;;;;;;;;;;11.49;100.00;97648.25;18563539;32;20332;-56
2023/05/14 06:13:41;;;;;;;;;;;;;;;11.68;100.00;97656.59;18563474;32;19952;-57
2023/05/14 06:23:44;;;;;;;;;;;;;;;11.78;100.00;97646.78;18562724;32;19964;-55
2023/05/14 06:33:46;;;;;;;;;;;;;;;12.35;100.00;97641.88;18562109;32;19997;-55
2023/05/14 06:43:49;;;;;;;;;;;;;;;13.20;100.00;97661.50;18561294;32;19945;-55
2023/05/14 06:53:53;;;;;;;;;;;;;;;13.29;100.00;97658.97;18547133;32;19948;-56
2023/05/14 07:03:55;;;;;;;;;;;;;;;13.67;100.00;97665.34;18560772;32;19971;-54
2023/05/14 07:13:58;;;;;;;;;;;;;;;13.78;100.00;97660.59;18560157;32;20008;-55
2023/05/14 07:24:01;;;;;;;;;;;;;;;14.07;100.00;97654.22;18545947;32;19969;-57
2023/05/14 07:34:03;;;;;;;;;;;;;;;14.45;100.00;97654.22;18570532;32;19996;-57
2023/05/14 07:44:06;;;;;;;;;;;;;;;14.62;100.00;97650.16;18572090;31;19969;-57
2023/05/14 07:54:10;;;;;;;;;;;;;;;14.96;100.00;97643.66;18571634;32;19960;-58
2023/05/14 08:04:14;;;;;;;;;;;;;;;14.95;100.00;97647.47;18556541;32;19952;-58
2023/05/14 08:14:17;;;;;;;;;;;;;;;15.34;100.00;97635.34;18556455;32;19999;-58
2023/05/14 08:24:20;;;;;;;;;;;;;;;16.20;100.00;97642.03;18570124;32;20237;-57
2023/05/14 08:34:23;;;;;;;;;;;;;;;16.18;100.00;97633.34;18569517;32;20337;-58
2023/05/14 08:44:35;;;;;;;;;;;;;;;17.20;100.00;97632.78;18567145;32;19957;-57
2023/05/14 08:54:39;;;;;;;;;;;;;;;16.43;100.00;97619.09;18568320;32;20287;-58
2023/05/14 09:04:42;;;;;;;;;;;;;;;16.94;100.00;97627.19;18567138;32;20298;-58
2023/05/14 09:14:46;;;;;;;;;;;;;;;17.24;100.00;97616.56;18552432;32;20044;-58
2023/05/14 09:25:03;;;;;;;;;;;;;;;17.22;100.00;97611.38;18566047;32;19971;-58
2023/05/14 09:35:10;;;;;;;;;;;;;;;17.30;100.00;97609.03;18551195;31;19976;-58
2023/05/14 09:45:13;;;;;;;;;;;;;;;17.16;100.00;97596.28;18564771;32;19996;-57
2023/05/14 09:55:17;;;;;;;;;;;;;;;17.56;100.00;97598.97;18563954;32;20284;-58
2023/05/14 10:05:25;;;;;;;;;;;;;;;17.86;100.00;97607.41;18563806;32;19979;-58
2023/05/14 10:15:34;;;;;;;;;;;;;;;17.92;100.00;97600.69;18563252;32;20015;-58
2023/05/14 10:25:38;;;;;;;;;;;;;;;18.10;100.00;97585.09;18562713;32;19957;-58
2023/05/14 10:35:58;;;;;;;;;;;;;;;19.96;92.97;97581.44;18561645;31;20012;-56
2023/05/14 10:46:01;;;;;;;;;;;;;;;20.92;82.51;97574.31;18561806;32;19953;-56
2023/05/14 10:56:08;;;;;;;;;;;;;;;20.74;69.25;97563.50;18561297;32;19957;-56
2023/05/14 11:06:12;;;;;;;;;;;;;;;20.52;76.84;97569.37;18533207;32;19945;-56
2023/05/14 11:16:17;;;;;;;;;;;;;;;20.02;77.33;97557.34;18560862;32;19956;-56
2023/05/14 11:26:25;;;;;;;;;;;;;;;19.73;81.58;97539.78;18560326;32;20316;-56
2023/05/14 11:36:28;;;;;;;;;;;;;;;19.17;82.62;97548.16;18559969;32;20004;-56
2023/05/14 11:46:32;;;;;;;;;;;;;;;18.27;100.00;97535.03;18545443;32;19993;-56
2023/05/14 11:56:35;;;;;;;;;;;;;;;18.30;100.00;97519.88;18545202;32;19960;-56
2023/05/14 12:06:38;;;;;;;;;;;;;;;18.73;100.00;97502.56;18558988;31;20344;-56
2023/05/14 12:16:43;;;;;;;;;;;;;;;19.46;100.00;97492.56;18564413;31;19984;-56
2023/05/14 12:26:47;;;;;;;;;;;;;;;20.13;96.43;97484.44;18569856;32;19948;-56
2023/05/14 12:36:53;;;;;;;;;;;;;;;20.74;91.21;97492.06;18569089;31;20025;-55
2023/05/14 12:46:56;;;;;;;;;;;;;;;21.80;94.41;97491.44;18568694;32;20077;-56
2023/05/14 12:57:00;;;;;;;;;;;;;;;21.96;86.96;97478.53;18568199;32;19949;-56
2023/05/14 13:07:03;;;;;;;;;;;;;;;22.46;74.08;97464.56;18567317;32;19981;-56
2023/05/14 13:17:08;;;;;;;;;;;;;;;21.99;66.00;97450.31;18567221;32;19980;-56
2023/05/14 13:27:11;;;;;;;;;;;;;;;22.10;59.92;97444.31;18565726;32;20321;-56
2023/05/14 13:37:14;;;;;;;;;;;;;;;21.76;59.86;97443.75;18565278;31;19988;-56
2023/05/14 13:47:17;;;;;;;;;;;;;;;22.24;62.24;97433.69;18551053;32;19975;-56
2023/05/14 13:57:22;;;;;;;;;;;;;;;22.44;60.13;97415.31;18564486;32;19964;-56
2023/05/14 14:07:26;;;;;;;;;;;;;;;22.27;51.95;97416.44;18548734;32;20007;-56
2023/05/14 14:17:29;;;;;;;;;;;;;;;20.96;55.95;97405.62;18549164;32;19968;-56
2023/05/14 14:27:34;;;;;;;;;;;;;;;20.57;61.41;97415.31;18562360;32;19972;-54
2023/05/14 14:37:38;;;;;;;;;;;;;;;19.67;73.90;97406.72;18561079;32;20285;-55
2023/05/14 14:47:42;;;;;;;;;;;;;;;19.48;82.31;97408.00;18561543;32;20016;-56
2023/05/14 14:57:45;;;;;;;;;;;;;;;20.70;63.72;97414.22;18561560;32;20277;-56
2023/05/14 15:07:48;;;;;;;;;;;;;;;21.53;61.59;97405.78;18561150;32;19993;-56
2023/05/14 15:17:51;;;;;;;;;;;;;;;21.09;61.26;97405.59;18546607;32;20375;-56
2023/05/14 15:27:54;;;;;;;;;;;;;;;20.84;73.47;97402.87;18560149;32;19952;-55
2023/05/14 15:37:57;;;;;;;;;;;;;;;20.62;66.03;97407.69;18559689;32;20004;-56
2023/05/14 15:48:01;;;;;;;;;;;;;;;19.92;69.31;97381.00;18560988;32;19952;-55
2023/05/14 15:58:05;;;;;;;;;;;;;;;19.05;72.73;97371.56;18544673;32;19953;-55
2023/05/14 16:08:08;;;;;;;;;;;;;;;19.16;65.74;97388.41;18544257;32;19963;-55
2023/05/14 16:18:11;;;;;;;;;;;;;;;19.53;75.35;97385.88;18570267;32;19967;-56
2023/05/14 16:28:14;;;;;;;;;;;;;;;19.62;76.94;97400.31;18569867;32;19948;-56
2023/05/14 16:38:18;;;;;;;;;;;;;;;18.53;73.05;97423.88;18555141;31;20000;-55
2023/05/14 16:48:22;;;;;;;;;;;;;;;17.41;85.98;97429.97;18568531;31;20290;-56
2023/05/14 16:58:30;;;;;;;;;;;;;;;16.81;87.55;97421.31;18553447;32;19956;-55
2023/05/14 17:08:35;;;;;;;;;;;;;;;16.35;97.93;97414.38;18567222;32;19952;-56
2023/05/14 17:18:39;;;;;;;;;;;;;;;16.11;100.00;97426.47;18566986;32;19949;-56
2023/05/14 17:28:43;;;;;;;;;;;;;;;15.91;100.00;97444.16;18552228;32;20016;-56
2023/05/14 17:38:47;;;;;;;;;;;;;;;15.60;100.00;97425.78;18551495;31;19996;-56
2023/05/14 17:48:50;;;;;;;;;;;;;;;15.42;100.00;97435.75;18564968;32;19948;-56
2023/05/14 17:58:55;;;;;;;;;;;;;;;15.25;100.00;97439.91;18550594;32;19957;-55
2023/05/14 18:08:58;;;;;;;;;;;;;;;15.09;100.00;97430.47;18563765;32;19972;-56
2023/05/14 18:19:00;;;;;;;;;;;;;;;15.06;100.00;97429.16;18562966;32;19985;-55
2023/05/14 18:29:03;;;;;;;;;;;;;;;15.04;100.00;97450.44;18562596;32;19979;-55
2023/05/14 18:39:06;;;;;;;;;;;;;;;14.58;100.00;97463.03;18547579;32;20008;-55
2023/05/14 18:49:09;;;;;;;;;;;;;;;14.04;100.00;97473.47;18561613;32;20037;-54
2023/05/14 18:59:13;;;;;;;;;;;;;;;13.53;100.00;97474.28;18561274;32;19961;-55
2023/05/14 19:09:19;;;;;;;;;;;;;;;13.13;100.00;97471.81;18561392;32;19964;-55
2023/05/14 19:19:24;;;;;;;;;;;;;;;12.81;100.00;97475.19;18560843;32;20066;-55
2023/05/14 19:29:27;;;;;;;;;;;;;;;12.56;100.00;97489.84;18555608;31;20379;-56
2023/05/14 19:39:30;;;;;;;;;;;;;;;12.32;100.00;97510.41;18572681;31;19956;-55
2023/05/14 19:49:32;;;;;;;;;;;;;;;12.11;100.00;97512.47;18572293;32;19960;-55
2023/05/14 19:59:37;;;;;;;;;;;;;;;12.08;100.00;97526.59;18572073;32;19972;-56
2023/05/14 20:09:40;;;;;;;;;;;;;;;11.99;100.00;97539.13;18571161;32;19957;-55
2023/05/14 20:19:44;;;;;;;;;;;;;;;11.97;100.00;97544.03;18570365;31;20079;-55
2023/05/14 20:29:50;;;;;;;;;;;;;;;11.96;100.00;97537.81;18569870;32;19971;-55
2023/05/14 20:39:52;;;;;;;;;;;;;;;11.86;100.00;97533.22;18569569;31;19997;-55
2023/05/14 20:49:55;;;;;;;;;;;;;;;11.77;100.00;97543.06;18568659;32;20316;-55
2023/05/14 20:59:59;;;;;;;;;;;;;;;11.73;100.00;97543.88;18568145;32;19956;-55
2023/05/14 21:10:02;;;;;;;;;;;;;;;11.62;100.00;97522.28;18567599;32;20302;-55
2023/05/14 21:20:06;;;;;;;;;;;;;;;11.54;100.00;97509.34;18566809;32;20328;-56
2023/05/14 21:30:09;;;;;;;;;;;;;;;11.46;100.00;97502.63;18552445;32;20005;-56
2023/05/14 21:40:12;;;;;;;;;;;;;;;11.43;100.00;97492.34;18552035;31;19960;-55
2023/05/14 21:50:15;;;;;;;;;;;;;;;11.39;100.00;97482.34;18564528;32;19964;-54
2023/05/14 22:00:22;;;;;;;;;;;;;;;11.21;100.00;97486.50;18564614;32;19948;-54
2023/05/14 22:10:24;;;;;;;;;;;;;;;10.91;100.00;97485.56;18550200;31;19967;-55
2023/05/14 22:20:26;;;;;;;;;;;;;;;10.64;100.00;97492.16;18563173;32;19986;-55
2023/05/14 22:30:29;;;;;;;;;;;;;;;10.44;100.00;97495.69;18563200;32;19965;-55
2023/05/14 22:40:32;;;;;;;;;;;;;;;10.30;100.00;97487.31;18561994;32;19971;-55
2023/05/14 22:50:34;;;;;;;;;;;;;;;10.13;100.00;97479.50;18561690;32;19971;-55
2023/05/14 23:00:37;;;;;;;;;;;;;;;9.95;100.00;97495.19;18560796;32;20358;-58
2023/05/14 23:10:41;;;;;;;;;;;;;;;9.87;100.00;97500.28;18560877;32;20416;-57
2023/05/14 23:20:44;;;;;;;;;;;;;;;10.02;100.00;97494.91;18560686;32;19967;-57
2023/05/14 23:30:49;;;;;;;;;;;;;;;10.08;100.00;97490.31;18545944;32;19968;-58
2023/05/14 23:40:52;;;;;;;;;;;;;;;10.06;100.00;97479.78;18545882;32;19960;-58
2023/05/14 23:50:54;;;;;;;;;;;;;;;10.05;100.00;97463.84;18559844;32;19952;-57
